createdAt,value
2019-04-11T00:00:57.726Z,1022.79
2019-04-11T00:02:02.561Z,1022.78
2019-04-11T00:03:06.077Z,1022.78
2019-04-11T00:04:10.319Z,1022.80
2019-04-11T00:05:14.780Z,1022.79
2019-04-11T00:06:19.254Z,1022.78
2019-04-11T00:07:22.854Z,1022.79
2019-04-11T00:08:28.042Z,1022.81
2019-04-11T00:09:32.497Z,1022.81
2019-04-11T00:10:35.532Z,1022.80
2019-04-11T00:11:39.373Z,1022.82
2019-04-11T00:12:43.783Z,1022.81
2019-04-11T00:13:47.967Z,1022.83
2019-04-11T00:14:52.240Z,1022.84
2019-04-11T00:15:57.174Z,1022.85
2019-04-11T00:17:01.572Z,1022.86
2019-04-11T00:18:06.070Z,1022.88
2019-04-11T00:19:09.425Z,1022.91
2019-04-11T00:20:13.286Z,1022.87
2019-04-11T00:21:17.344Z,1022.89
2019-04-11T00:22:21.567Z,1022.90
2019-04-11T00:23:26.093Z,1022.89
2019-04-11T00:24:31.259Z,1022.92
2019-04-11T00:25:34.161Z,1022.92
2019-04-11T00:26:38.474Z,1022.93
2019-04-11T00:27:43.448Z,1022.95
2019-04-11T00:28:47.882Z,1022.94
2019-04-11T00:29:51.418Z,1022.94
2019-04-11T00:30:55.027Z,1022.92
2019-04-11T00:31:59.233Z,1022.91
2019-04-11T00:33:03.526Z,1022.92
2019-04-11T00:34:08.819Z,1022.95
2019-04-11T00:35:11.702Z,1022.97
2019-04-11T00:36:16.576Z,1022.99
2019-04-11T00:37:21.023Z,1023.00
2019-04-11T00:38:24.209Z,1022.99
2019-04-11T00:39:28.401Z,1023.00
2019-04-11T00:40:33.274Z,1022.98
2019-04-11T00:41:37.703Z,1023.01
2019-04-11T00:42:40.987Z,1023.01
2019-04-11T00:43:45.761Z,1023.04
2019-04-11T00:44:49.609Z,1023.04
2019-04-11T00:45:54.065Z,1023.05
2019-04-11T00:46:58.482Z,1023.08
2019-04-11T00:48:01.904Z,1023.06
2019-04-11T00:49:06.262Z,1023.05
2019-04-11T00:50:10.718Z,1023.00
2019-04-11T00:51:14.444Z,1023.01
2019-04-11T00:52:18.683Z,1023.00
2019-04-11T00:53:22.929Z,1023.01
2019-04-11T00:54:27.009Z,1023.04
2019-04-11T00:55:31.477Z,1023.02
2019-04-11T00:56:35.259Z,1023.05
2019-04-11T00:57:39.456Z,1023.03
2019-04-11T00:58:43.709Z,1023.04
2019-04-11T00:59:48.807Z,1023.00
2019-04-11T01:00:53.424Z,1023.00
2019-04-11T01:01:56.866Z,1023.04
2019-04-11T01:03:00.502Z,1023.04
2019-04-11T01:04:04.739Z,1023.06
2019-04-11T01:05:09.594Z,1023.08
2019-04-11T01:06:13.946Z,1023.11
2019-04-11T01:07:18.514Z,1023.14
2019-04-11T01:08:21.840Z,1023.14
2019-04-11T01:09:26.401Z,1023.12
2019-04-11T01:10:30.044Z,1023.12
2019-04-11T01:11:34.237Z,1023.10
2019-04-11T01:12:38.258Z,1023.09
2019-04-11T01:13:50.342Z,1023.13
2019-04-11T01:14:46.937Z,1023.14
2019-04-11T01:15:50.860Z,1023.15
2019-04-11T01:16:55.132Z,1023.17
2019-04-11T01:18:03.521Z,1023.16
2019-04-11T01:19:06.606Z,1023.18
2019-04-11T01:20:09.524Z,1023.16
2019-04-11T01:21:13.765Z,1023.16
2019-04-11T01:22:18.156Z,1023.18
2019-04-11T01:23:22.769Z,1023.21
2019-04-11T01:24:26.070Z,1023.22
2019-04-11T01:25:30.674Z,1023.25
2019-04-11T01:26:35.085Z,1023.27
2019-04-11T01:27:39.709Z,1023.29
2019-04-11T01:28:42.893Z,1023.30
2019-04-11T01:29:47.396Z,1023.29
2019-04-11T01:30:51.326Z,1023.28
2019-04-11T01:33:04.567Z,1023.27
2019-04-11T01:34:08.608Z,1023.26
2019-04-11T01:35:13.101Z,1023.25
2019-04-11T01:36:16.520Z,1023.25
2019-04-11T01:37:21.785Z,1023.27
2019-04-11T01:38:25.463Z,1023.30
2019-04-11T01:39:29.415Z,1023.30
2019-04-11T01:40:33.891Z,1023.30
2019-04-11T01:41:37.060Z,1023.31
2019-04-11T01:42:41.784Z,1023.31
2019-04-11T01:43:55.384Z,1023.31
2019-04-11T01:44:49.598Z,1023.26
2019-04-11T01:45:53.806Z,1023.26
2019-04-11T01:46:58.347Z,1023.25
2019-04-11T01:48:01.929Z,1023.26
2019-04-11T01:49:06.126Z,1023.28
2019-04-11T01:50:10.599Z,1023.28
2019-04-11T01:51:14.377Z,1023.29
2019-04-11T01:52:18.504Z,1023.28
2019-04-11T01:53:22.689Z,1023.26
2019-04-11T01:54:28.064Z,1023.27
2019-04-11T01:55:31.215Z,1023.24
2019-04-11T01:56:35.337Z,1023.25
2019-04-11T01:57:40.271Z,1023.25
2019-04-11T01:58:43.755Z,1023.26
2019-04-11T01:59:48.005Z,1023.26
2019-04-11T02:00:52.563Z,1023.28
2019-04-11T02:01:56.931Z,1023.30
2019-04-11T02:03:01.215Z,1023.29
2019-04-11T02:04:05.725Z,1023.30
2019-04-11T02:05:08.620Z,1023.30
2019-04-11T02:06:13.844Z,1023.31
2019-04-11T02:07:16.855Z,1023.30
2019-04-11T02:08:20.971Z,1023.30
2019-04-11T02:09:26.179Z,1023.33
2019-04-11T02:10:29.669Z,1023.35
2019-04-11T02:11:33.964Z,1023.37
2019-04-11T02:12:37.730Z,1023.38
2019-04-11T02:13:41.994Z,1023.39
2019-04-11T02:14:46.140Z,1023.40
2019-04-11T02:15:50.398Z,1023.41
2019-04-11T02:16:54.404Z,1023.42
2019-04-11T02:17:59.241Z,1023.42
2019-04-11T02:19:03.653Z,1023.42
2019-04-11T02:20:07.018Z,1023.41
2019-04-11T02:21:11.551Z,1023.42
2019-04-11T02:22:15.955Z,1023.44
2019-04-11T02:23:20.079Z,1023.45
2019-04-11T02:24:23.740Z,1023.49
2019-04-11T02:25:28.219Z,1023.48
2019-04-11T02:26:31.645Z,1023.51
2019-04-11T02:27:35.867Z,1023.49
2019-04-11T02:28:40.985Z,1023.49
2019-04-11T02:29:44.810Z,1023.48
2019-04-11T02:30:48.689Z,1023.49
2019-04-11T02:31:52.885Z,1023.53
2019-04-11T02:32:58.175Z,1023.52
2019-04-11T02:34:01.948Z,1023.54
2019-04-11T02:35:07.606Z,1023.52
2019-04-11T02:36:10.033Z,1023.51
2019-04-11T02:37:13.492Z,1023.53
2019-04-11T02:38:18.769Z,1023.52
2019-04-11T02:39:22.872Z,1023.56
2019-04-11T02:40:27.506Z,1023.56
2019-04-11T02:41:31.460Z,1023.54
2019-04-11T02:42:35.074Z,1023.56
2019-04-11T02:43:40.133Z,1023.56
2019-04-11T02:44:59.669Z,1023.55
2019-04-11T02:45:58.220Z,1023.55
2019-04-11T02:47:00.722Z,1023.54
2019-04-11T02:47:57.132Z,1023.53
2019-04-11T02:49:02.990Z,1023.52
2019-04-11T02:50:05.838Z,1023.54
2019-04-11T02:51:09.877Z,1023.53
2019-04-11T02:52:13.471Z,1023.54
2019-04-11T02:53:17.651Z,1023.54
2019-04-11T02:54:22.358Z,1023.52
2019-04-11T02:55:27.591Z,1023.54
2019-04-11T02:56:31.217Z,1023.52
2019-04-11T02:57:34.384Z,1023.50
2019-04-11T02:58:39.168Z,1023.49
2019-04-11T02:59:44.641Z,1023.50
2019-04-11T03:00:46.942Z,1023.52
2019-04-11T03:01:51.364Z,1023.52
2019-04-11T03:02:56.912Z,1023.53
2019-04-11T03:04:01.713Z,1023.54
2019-04-11T03:05:05.577Z,1023.54
2019-04-11T03:06:09.283Z,1023.56
2019-04-11T03:07:12.337Z,1023.54
2019-04-11T03:08:19.138Z,1023.58
2019-04-11T03:09:22.024Z,1023.59
2019-04-11T03:10:24.795Z,1023.60
2019-04-11T03:11:30.216Z,1023.60
2019-04-11T03:12:33.918Z,1023.60
2019-04-11T03:13:38.148Z,1023.56
2019-04-11T03:15:01.895Z,1023.58
2019-04-11T03:16:01.631Z,1023.56
2019-04-11T03:16:59.660Z,1023.58
2019-04-11T03:17:57.742Z,1023.59
2019-04-11T03:19:15.925Z,1023.60
2019-04-11T03:20:13.316Z,1023.59
2019-04-11T03:21:11.126Z,1023.62
2019-04-11T03:22:10.334Z,1023.63
2019-04-11T03:23:18.102Z,1023.63
2019-04-11T03:24:18.389Z,1023.63
2019-04-11T03:25:22.672Z,1023.65
2019-04-11T03:26:27.065Z,1023.65
2019-04-11T03:27:32.390Z,1023.63
2019-04-11T03:28:36.369Z,1023.64
2019-04-11T03:29:38.954Z,1023.63
2019-04-11T03:31:06.901Z,1023.63
2019-04-11T03:32:34.311Z,1023.66
2019-04-11T03:34:51.942Z,1023.68
2019-04-11T03:35:51.011Z,1023.71
2019-04-11T03:37:38.611Z,1023.71
2019-04-11T03:38:38.482Z,1023.72
2019-04-11T03:39:39.524Z,1023.72
2019-04-11T03:40:36.948Z,1023.75
2019-04-11T03:41:42.764Z,1023.76
2019-04-11T03:42:43.321Z,1023.76
2019-04-11T03:43:42.037Z,1023.78
2019-04-11T03:44:43.782Z,1023.79
2019-04-11T03:45:58.937Z,1023.81
2019-04-11T03:47:01.792Z,1023.84
2019-04-11T03:48:06.978Z,1023.86
2019-04-11T03:49:03.968Z,1023.88
2019-04-11T03:50:05.366Z,1023.88
2019-04-11T03:51:02.614Z,1023.89
2019-04-11T03:52:08.195Z,1023.89
2019-04-11T03:53:11.375Z,1023.90
2019-04-11T03:54:15.606Z,1023.86
2019-04-11T03:55:19.339Z,1023.87
2019-04-11T03:56:22.376Z,1023.87
2019-04-11T03:57:27.698Z,1023.88
2019-04-11T03:58:31.135Z,1023.90
2019-04-11T03:59:36.614Z,1023.90
2019-04-11T04:00:43.128Z,1023.88
2019-04-11T04:01:44.317Z,1023.88
2019-04-11T04:02:48.947Z,1023.86
2019-04-11T04:03:53.409Z,1023.88
2019-04-11T04:04:56.795Z,1023.88
2019-04-11T04:06:01.772Z,1023.90
2019-04-11T04:07:04.935Z,1023.93
2019-04-11T04:08:08.782Z,1023.91
2019-04-11T04:09:13.098Z,1023.92
2019-04-11T04:10:17.913Z,1023.92
2019-04-11T04:11:22.164Z,1023.94
2019-04-11T04:12:24.561Z,1023.92
2019-04-11T04:13:31.633Z,1023.92
2019-04-11T04:14:34.354Z,1023.89
2019-04-11T04:15:51.717Z,1023.89
2019-04-11T04:16:46.825Z,1023.91
2019-04-11T04:17:45.671Z,1023.91
2019-04-11T04:18:49.599Z,1023.93
2019-04-11T04:19:54.270Z,1023.93
2019-04-11T04:20:59.546Z,1023.98
2019-04-11T04:22:03.125Z,1023.99
2019-04-11T04:23:07.631Z,1024.01
2019-04-11T04:24:10.619Z,1024.04
2019-04-11T04:25:14.432Z,1024.08
2019-04-11T04:26:19.181Z,1024.10
2019-04-11T04:27:25.162Z,1024.09
2019-04-11T04:28:27.296Z,1024.11
2019-04-11T04:29:32.338Z,1024.13
2019-04-11T04:30:36.022Z,1024.14
2019-04-11T04:31:40.571Z,1024.16
2019-04-11T04:32:45.080Z,1024.17
2019-04-11T04:33:48.788Z,1024.18
2019-04-11T04:34:53.109Z,1024.18
2019-04-11T04:35:57.921Z,1024.21
2019-04-11T04:37:00.639Z,1024.22
2019-04-11T04:38:05.244Z,1024.24
2019-04-11T04:39:10.539Z,1024.26
2019-04-11T04:40:34.214Z,1024.27
2019-04-11T04:41:28.138Z,1024.29
2019-04-11T04:42:29.612Z,1024.30
2019-04-11T04:43:27.246Z,1024.31
2019-04-11T04:44:29.838Z,1024.33
2019-04-11T04:45:54.589Z,1024.35
2019-04-11T04:46:52.668Z,1024.35
2019-04-11T04:47:46.990Z,1024.37
2019-04-11T04:48:47.862Z,1024.37
2019-04-11T04:49:52.158Z,1024.35
2019-04-11T04:50:56.943Z,1024.39
2019-04-11T04:51:59.448Z,1024.37
2019-04-11T04:53:03.016Z,1024.38
2019-04-11T04:54:08.099Z,1024.41
2019-04-11T04:55:12.807Z,1024.38
2019-04-11T04:56:18.483Z,1024.39
2019-04-11T04:57:20.235Z,1024.37
2019-04-11T04:58:24.868Z,1024.38
2019-04-11T04:59:28.244Z,1024.40
2019-04-11T05:00:32.156Z,1024.40
2019-04-11T05:01:37.331Z,1024.39
2019-04-11T05:02:41.974Z,1024.39
2019-04-11T05:03:44.821Z,1024.39
2019-04-11T05:04:48.487Z,1024.40
2019-04-11T05:05:53.026Z,1024.40
2019-04-11T05:06:56.756Z,1024.37
2019-04-11T05:08:02.722Z,1024.40
2019-04-11T05:09:06.395Z,1024.41
2019-04-11T05:10:09.139Z,1024.45
2019-04-11T05:11:14.014Z,1024.44
2019-04-11T05:12:18.374Z,1024.46
2019-04-11T05:13:21.806Z,1024.44
2019-04-11T05:14:27.325Z,1024.41
2019-04-11T05:15:30.162Z,1024.42
2019-04-11T05:16:35.577Z,1024.44
2019-04-11T05:17:38.744Z,1024.43
2019-04-11T05:18:42.422Z,1024.44
2019-04-11T05:19:46.634Z,1024.46
2019-04-11T05:20:50.734Z,1024.46
2019-04-11T05:21:54.916Z,1024.50
2019-04-11T05:23:00.018Z,1024.50
2019-04-11T05:24:04.042Z,1024.51
2019-04-11T05:25:08.410Z,1024.50
2019-04-11T05:26:11.385Z,1024.52
2019-04-11T05:27:15.635Z,1024.50
2019-04-11T05:28:19.827Z,1024.50
2019-04-11T05:29:25.010Z,1024.51
2019-04-11T05:30:29.165Z,1024.52
2019-04-11T05:31:32.375Z,1024.51
2019-04-11T05:32:37.514Z,1024.54
2019-04-11T05:33:40.741Z,1024.57
2019-04-11T05:34:45.642Z,1024.58
2019-04-11T05:35:50.068Z,1024.60
2019-04-11T05:36:53.363Z,1024.61
2019-04-11T05:37:57.936Z,1024.63
2019-04-11T05:39:02.350Z,1024.60
2019-04-11T05:40:07.142Z,1024.61
2019-04-11T05:41:12.250Z,1024.58
2019-04-11T05:42:18.633Z,1024.59
2019-04-11T05:43:18.308Z,1024.60
2019-04-11T05:44:22.900Z,1024.61
2019-04-11T05:45:26.685Z,1024.61
2019-04-11T05:46:35.219Z,1024.63
2019-04-11T05:47:35.204Z,1024.64
2019-04-11T05:48:39.212Z,1024.64
2019-04-11T05:49:43.900Z,1024.66
2019-04-11T05:50:50.466Z,1024.68
2019-04-11T05:51:55.705Z,1024.70
2019-04-11T05:52:56.719Z,1024.69
2019-04-11T05:54:05.932Z,1024.70
2019-04-11T05:55:04.939Z,1024.70
2019-04-11T05:56:09.180Z,1024.71
2019-04-11T05:57:13.248Z,1024.73
2019-04-11T05:58:17.680Z,1024.76
2019-04-11T05:59:21.587Z,1024.74
2019-04-11T06:00:24.849Z,1024.75
2019-04-11T06:01:29.133Z,1024.75
2019-04-11T06:02:33.310Z,1024.76
2019-04-11T06:03:41.045Z,1024.76
2019-04-11T06:04:42.696Z,1024.75
2019-04-11T06:05:46.472Z,1024.79
2019-04-11T06:06:50.653Z,1024.78
2019-04-11T06:07:57.281Z,1024.80
2019-04-11T06:09:00.767Z,1024.80
2019-04-11T06:10:07.111Z,1024.79
2019-04-11T06:11:06.982Z,1024.78
2019-04-11T06:12:11.664Z,1024.80
2019-04-11T06:13:16.428Z,1024.80
2019-04-11T06:14:19.711Z,1024.79
2019-04-11T06:15:27.095Z,1024.78
2019-04-11T06:16:36.862Z,1024.79
2019-04-11T06:17:34.341Z,1024.78
2019-04-11T06:18:43.135Z,1024.78
2019-04-11T06:19:42.395Z,1024.78
2019-04-11T06:20:47.266Z,1024.76
2019-04-11T06:21:50.827Z,1024.75
2019-04-11T06:22:56.129Z,1024.76
2019-04-11T06:23:59.286Z,1024.78
2019-04-11T06:25:03.663Z,1024.78
2019-04-11T06:26:09.188Z,1024.81
2019-04-11T06:27:13.648Z,1024.81
2019-04-11T06:28:15.929Z,1024.83
2019-04-11T06:29:23.271Z,1024.82
2019-04-11T06:30:24.317Z,1024.82
2019-04-11T06:31:28.337Z,1024.82
2019-04-11T06:32:32.583Z,1024.81
2019-04-11T06:33:36.697Z,1024.79
2019-04-11T06:34:41.719Z,1024.79
2019-04-11T06:35:46.305Z,1024.82
2019-04-11T06:36:49.610Z,1024.82
2019-04-11T06:37:54.222Z,1024.83
2019-04-11T06:38:58.756Z,1024.86
2019-04-11T06:40:02.523Z,1024.85
2019-04-11T06:41:06.311Z,1024.83
2019-04-11T06:42:10.778Z,1024.82
2019-04-11T06:43:14.463Z,1024.85
2019-04-11T06:44:18.782Z,1024.85
2019-04-11T06:45:27.153Z,1024.87
2019-04-11T06:46:29.329Z,1024.88
2019-04-11T06:47:34.600Z,1024.91
2019-04-11T06:48:38.092Z,1024.90
2019-04-11T06:49:42.570Z,1024.88
2019-04-11T06:50:46.969Z,1024.88
2019-04-11T06:51:50.512Z,1024.88
2019-04-11T06:52:54.562Z,1024.88
2019-04-11T06:53:58.826Z,1024.91
2019-04-11T06:55:02.821Z,1024.90
2019-04-11T06:56:08.257Z,1024.92
2019-04-11T06:57:11.784Z,1024.92
2019-04-11T06:58:15.581Z,1024.91
2019-04-11T06:59:20.623Z,1024.90
2019-04-11T07:00:23.771Z,1024.90
2019-04-11T07:01:28.122Z,1024.92
2019-04-11T07:02:32.371Z,1024.92
2019-04-11T07:03:36.597Z,1024.94
2019-04-11T07:04:41.820Z,1024.96
2019-04-11T07:05:44.894Z,1024.97
2019-04-11T07:06:49.027Z,1024.97
2019-04-11T07:07:53.666Z,1024.96
2019-04-11T07:08:57.349Z,1024.93
2019-04-11T07:10:02.086Z,1024.92
2019-04-11T07:11:05.775Z,1024.93
2019-04-11T07:12:09.975Z,1024.94
2019-04-11T07:13:14.336Z,1024.91
2019-04-11T07:14:18.370Z,1024.94
2019-04-11T07:15:23.131Z,1024.93
2019-04-11T07:16:27.634Z,1024.93
2019-04-11T07:17:31.762Z,1024.96
2019-04-11T07:18:35.723Z,1024.97
2019-04-11T07:19:39.439Z,1024.98
2019-04-11T07:20:43.669Z,1024.96
2019-04-11T07:21:48.242Z,1024.97
2019-04-11T07:22:52.044Z,1024.96
2019-04-11T07:23:59.632Z,1024.96
2019-04-11T07:25:02.317Z,1024.98
2019-04-11T07:26:06.532Z,1024.99
2019-04-11T07:27:11.672Z,1025.00
2019-04-11T07:28:14.847Z,1025.01
2019-04-11T07:29:19.511Z,1025.05
2019-04-11T07:30:25.158Z,1025.05
2019-04-11T07:31:27.807Z,1025.04
2019-04-11T07:32:32.008Z,1025.03
2019-04-11T07:33:37.230Z,1025.03
2019-04-11T07:34:40.430Z,1025.02
2019-04-11T07:35:45.136Z,1025.01
2019-04-11T07:36:49.196Z,1025.04
2019-04-11T07:37:53.414Z,1025.05
2019-04-11T07:38:58.839Z,1025.08
2019-04-11T07:40:02.978Z,1025.08
2019-04-11T07:41:06.587Z,1025.08
2019-04-11T07:42:11.288Z,1025.10
2019-04-11T07:43:16.872Z,1025.09
2019-04-11T07:44:19.611Z,1025.08
2019-04-11T07:45:23.117Z,1025.09
2019-04-11T07:46:27.357Z,1025.09
2019-04-11T07:47:32.302Z,1025.08
2019-04-11T07:48:35.949Z,1025.10
2019-04-11T07:49:40.762Z,1025.07
2019-04-11T07:50:44.378Z,1025.07
2019-04-11T07:51:48.620Z,1025.07
2019-04-11T07:52:52.158Z,1025.09
2019-04-11T07:53:56.766Z,1025.09
2019-04-11T07:55:00.483Z,1025.11
2019-04-11T07:56:05.103Z,1025.12
2019-04-11T07:57:09.100Z,1025.13
2019-04-11T07:58:13.293Z,1025.16
2019-04-11T07:59:17.540Z,1025.15
2019-04-11T08:00:35.919Z,1025.17
2019-04-11T08:01:26.929Z,1025.15
2019-04-11T08:02:31.316Z,1025.11
2019-04-11T08:03:35.579Z,1025.14
2019-04-11T08:04:38.751Z,1025.14
2019-04-11T08:05:43.020Z,1025.13
2019-04-11T08:06:47.950Z,1025.16
2019-04-11T08:07:51.514Z,1025.16
2019-04-11T08:08:55.984Z,1025.17
2019-04-11T08:10:00.028Z,1025.18
2019-04-11T08:11:04.449Z,1025.16
2019-04-11T08:12:08.761Z,1025.16
2019-04-11T08:13:12.705Z,1025.17
2019-04-11T08:14:18.213Z,1025.16
2019-04-11T08:15:21.694Z,1025.17
2019-04-11T08:16:25.311Z,1025.15
2019-04-11T08:17:36.854Z,1025.17
2019-04-11T08:18:34.921Z,1025.19
2019-04-11T08:19:38.614Z,1025.18
2019-04-11T08:20:42.300Z,1025.18
2019-04-11T08:21:46.536Z,1025.19
2019-04-11T08:22:51.589Z,1025.18
2019-04-11T08:23:56.097Z,1025.20
2019-04-11T08:24:59.218Z,1025.19
2019-04-11T08:26:03.997Z,1025.18
2019-04-11T08:27:07.673Z,1025.20
2019-04-11T08:28:13.913Z,1025.20
2019-04-11T08:29:16.157Z,1025.19
2019-04-11T08:30:20.296Z,1025.18
2019-04-11T08:31:24.535Z,1025.21
2019-04-11T08:32:29.618Z,1025.21
2019-04-11T08:33:33.102Z,1025.23
2019-04-11T08:34:37.594Z,1025.19
2019-04-11T08:35:44.322Z,1025.21
2019-04-11T08:36:48.914Z,1025.20
2019-04-11T08:37:51.956Z,1025.21
2019-04-11T08:38:56.453Z,1025.19
2019-04-11T08:40:01.705Z,1025.20
2019-04-11T08:41:04.635Z,1025.18
2019-04-11T08:42:09.410Z,1025.24
2019-04-11T08:43:13.140Z,1025.24
2019-04-11T08:44:17.496Z,1025.23
2019-04-11T08:45:21.685Z,1025.25
2019-04-11T08:46:26.797Z,1025.24
2019-04-11T08:47:41.573Z,1025.23
2019-04-11T08:48:35.173Z,1025.21
2019-04-11T08:49:39.723Z,1025.22
2019-04-11T08:50:43.056Z,1025.26
2019-04-11T08:51:47.485Z,1025.24
2019-04-11T08:52:51.991Z,1025.22
2019-04-11T08:53:55.810Z,1025.23
2019-04-11T08:55:00.083Z,1025.22
2019-04-11T08:56:05.528Z,1025.25
2019-04-11T08:57:09.994Z,1025.21
2019-04-11T08:58:12.738Z,1025.26
2019-04-11T08:59:17.283Z,1025.25
2019-04-11T09:00:22.099Z,1025.25
2019-04-11T09:01:25.411Z,1025.25
2019-04-11T09:02:29.682Z,1025.23
2019-04-11T09:03:33.973Z,1025.25
2019-04-11T09:04:38.397Z,1025.24
2019-04-11T09:05:42.879Z,1025.26
2019-04-11T09:06:47.173Z,1025.19
2019-04-11T09:07:52.030Z,1025.18
2019-04-11T09:08:55.002Z,1025.16
2019-04-11T09:09:59.815Z,1025.14
2019-04-11T09:11:04.480Z,1025.14
2019-04-11T09:12:07.840Z,1025.15
2019-04-11T09:13:13.167Z,1025.12
2019-04-11T09:14:16.295Z,1025.10
2019-04-11T09:15:21.131Z,1025.11
2019-04-11T09:16:25.771Z,1025.10
2019-04-11T09:17:30.234Z,1025.10
2019-04-11T09:18:34.370Z,1025.07
2019-04-11T09:19:37.610Z,1025.05
2019-04-11T09:20:41.973Z,1025.03
2019-04-11T09:21:46.632Z,1025.08
2019-04-11T09:22:50.539Z,1025.05
2019-04-11T09:23:54.738Z,1025.05
2019-04-11T09:24:59.050Z,1024.99
2019-04-11T09:26:03.625Z,1025.03
2019-04-11T09:27:08.601Z,1025.05
2019-04-11T09:28:11.562Z,1025.04
2019-04-11T09:29:15.871Z,1025.03
2019-04-11T09:30:20.953Z,1025.02
2019-04-11T09:31:25.506Z,1025.06
2019-04-11T09:32:28.666Z,1025.04
2019-04-11T09:33:33.120Z,1025.05
2019-04-11T09:34:37.693Z,1025.04
2019-04-11T09:35:41.571Z,1025.07
2019-04-11T09:36:45.590Z,1025.07
2019-04-11T09:37:49.736Z,1025.07
2019-04-11T09:38:54.836Z,1025.09
2019-04-11T09:39:59.318Z,1025.08
2019-04-11T09:41:03.939Z,1025.11
2019-04-11T09:42:07.174Z,1025.11
2019-04-11T09:43:11.516Z,1025.14
2019-04-11T09:44:15.370Z,1025.16
2019-04-11T09:45:19.704Z,1025.14
2019-04-11T09:46:24.147Z,1025.17
2019-04-11T09:47:28.304Z,1025.19
2019-04-11T09:48:33.535Z,1025.17
2019-04-11T09:49:37.601Z,1025.17
2019-04-11T09:50:40.711Z,1025.17
2019-04-11T09:51:44.997Z,1025.15
2019-04-11T09:52:49.579Z,1025.14
2019-04-11T09:53:53.321Z,1025.14
2019-04-11T09:54:58.765Z,1025.15
2019-04-11T09:56:02.614Z,1025.14
2019-04-11T09:57:06.098Z,1025.15
2019-04-11T09:58:11.149Z,1025.18
2019-04-11T09:59:14.615Z,1025.18
2019-04-11T10:00:18.808Z,1025.20
2019-04-11T10:01:23.129Z,1025.19
2019-04-11T10:02:27.545Z,1025.23
2019-04-11T10:03:32.107Z,1025.21
2019-04-11T10:04:36.033Z,1025.23
2019-04-11T10:05:40.683Z,1025.27
2019-04-11T10:06:44.595Z,1025.28
2019-04-11T10:07:48.260Z,1025.28
2019-04-11T10:08:52.582Z,1025.27
2019-04-11T10:09:56.912Z,1025.34
2019-04-11T10:11:01.767Z,1025.35
2019-04-11T10:12:06.459Z,1025.40
2019-04-11T10:13:09.418Z,1025.44
2019-04-11T10:14:13.704Z,1025.45
2019-04-11T10:15:18.889Z,1025.46
2019-04-11T10:16:22.242Z,1025.44
2019-04-11T10:17:26.946Z,1025.47
2019-04-11T10:18:35.473Z,1025.45
2019-04-11T10:19:36.044Z,1025.49
2019-04-11T10:20:40.390Z,1025.48
2019-04-11T10:21:43.698Z,1025.48
2019-04-11T10:22:48.093Z,1025.46
2019-04-11T10:23:51.831Z,1025.48
2019-04-11T10:24:56.821Z,1025.47
2019-04-11T10:26:01.360Z,1025.52
2019-04-11T10:27:04.808Z,1025.50
2019-04-11T10:28:09.226Z,1025.51
2019-04-11T10:29:12.955Z,1025.51
2019-04-11T10:30:17.399Z,1025.50
2019-04-11T10:31:22.329Z,1025.53
2019-04-11T10:32:25.752Z,1025.53
2019-04-11T10:33:30.952Z,1025.54
2019-04-11T10:34:35.359Z,1025.53
2019-04-11T10:35:38.703Z,1025.54
2019-04-11T10:36:43.245Z,1025.54
2019-04-11T10:37:47.717Z,1025.52
2019-04-11T10:38:50.974Z,1025.53
2019-04-11T10:39:55.205Z,1025.54
2019-04-11T10:41:00.776Z,1025.52
2019-04-11T10:42:04.268Z,1025.50
2019-04-11T10:43:07.983Z,1025.51
2019-04-11T10:44:12.297Z,1025.53
2019-04-11T10:45:16.503Z,1025.53
2019-04-11T10:46:20.765Z,1025.51
2019-04-11T10:47:25.095Z,1025.53
2019-04-11T10:48:37.910Z,1025.51
2019-04-11T10:49:34.417Z,1025.55
2019-04-11T10:50:37.528Z,1025.55
2019-04-11T10:51:42.311Z,1025.55
2019-04-11T10:52:46.772Z,1025.55
2019-04-11T10:53:51.007Z,1025.53
2019-04-11T10:54:55.341Z,1025.56
2019-04-11T10:56:00.010Z,1025.54
2019-04-11T10:57:03.455Z,1025.54
2019-04-11T10:58:07.207Z,1025.55
2019-04-11T10:59:11.397Z,1025.54
2019-04-11T11:00:15.724Z,1025.52
2019-04-11T11:01:19.990Z,1025.53
2019-04-11T11:02:25.148Z,1025.54
2019-04-11T11:03:29.050Z,1025.55
2019-04-11T11:04:32.625Z,1025.55
2019-04-11T11:05:38.017Z,1025.56
2019-04-11T11:06:41.984Z,1025.56
2019-04-11T11:07:45.661Z,1025.55
2019-04-11T11:08:50.007Z,1025.58
2019-04-11T11:09:54.687Z,1025.56
2019-04-11T11:10:58.262Z,1025.56
2019-04-11T11:12:03.007Z,1025.57
2019-04-11T11:13:07.784Z,1025.57
2019-04-11T11:14:12.283Z,1025.57
2019-04-11T11:15:15.584Z,1025.57
2019-04-11T11:16:20.240Z,1025.56
2019-04-11T11:17:48.343Z,1025.56
2019-04-11T11:18:48.094Z,1025.56
2019-04-11T11:19:45.633Z,1025.56
2019-04-11T11:20:41.532Z,1025.57
2019-04-11T11:21:40.859Z,1025.59
2019-04-11T11:22:46.108Z,1025.58
2019-04-11T11:23:49.612Z,1025.57
2019-04-11T11:24:54.503Z,1025.58
2019-04-11T11:25:58.508Z,1025.61
2019-04-11T11:27:04.070Z,1025.62
2019-04-11T11:28:07.384Z,1025.61
2019-04-11T11:29:14.793Z,1025.60
2019-04-11T11:30:14.437Z,1025.62
2019-04-11T11:31:18.663Z,1025.57
2019-04-11T11:32:23.003Z,1025.54
2019-04-11T11:33:27.159Z,1025.54
2019-04-11T11:34:32.553Z,1025.52
2019-04-11T11:35:39.045Z,1025.54
2019-04-11T11:36:39.896Z,1025.55
2019-04-11T11:37:45.092Z,1025.53
2019-04-11T11:38:48.292Z,1025.52
2019-04-11T11:39:52.509Z,1025.51
2019-04-11T11:40:56.731Z,1025.50
2019-04-11T11:42:02.102Z,1025.52
2019-04-11T11:43:06.422Z,1025.48
2019-04-11T11:44:09.774Z,1025.49
2019-04-11T11:45:13.623Z,1025.49
2019-04-11T11:46:19.304Z,1025.54
2019-04-11T11:47:22.154Z,1025.50
2019-04-11T11:48:27.819Z,1025.49
2019-04-11T11:49:44.800Z,1025.48
2019-04-11T11:50:36.037Z,1025.50
2019-04-11T11:51:39.344Z,1025.49
2019-04-11T11:52:43.997Z,1025.50
2019-04-11T11:53:47.508Z,1025.48
2019-04-11T11:54:51.800Z,1025.48
2019-04-11T11:55:56.057Z,1025.45
2019-04-11T11:57:00.314Z,1025.44
2019-04-11T11:58:04.609Z,1025.45
2019-04-11T11:59:09.138Z,1025.43
2019-04-11T12:00:13.203Z,1025.43
2019-04-11T12:01:17.745Z,1025.44
2019-04-11T12:02:22.972Z,1025.41
2019-04-11T12:03:29.161Z,1025.44
2019-04-11T12:04:32.941Z,1025.43
2019-04-11T12:05:34.737Z,1025.45
2019-04-11T12:06:38.858Z,1025.44
2019-04-11T12:07:43.120Z,1025.44
2019-04-11T12:08:48.266Z,1025.42
2019-04-11T12:09:51.014Z,1025.44
2019-04-11T12:10:55.100Z,1025.45
2019-04-11T12:11:59.479Z,1025.45
2019-04-11T12:13:07.992Z,1025.45
2019-04-11T12:14:07.922Z,1025.42
2019-04-11T12:15:14.320Z,1025.43
2019-04-11T12:16:20.727Z,1025.42
2019-04-11T12:17:20.874Z,1025.44
2019-04-11T12:18:24.933Z,1025.44
2019-04-11T12:19:41.221Z,1025.45
2019-04-11T12:20:33.245Z,1025.44
2019-04-11T12:21:37.424Z,1025.45
2019-04-11T12:22:42.231Z,1025.47
2019-04-11T12:23:56.271Z,1025.50
2019-04-11T12:24:50.339Z,1025.49
2019-04-11T12:25:55.652Z,1025.51
2019-04-11T12:26:58.661Z,1025.53
2019-04-11T12:28:05.385Z,1025.55
2019-04-11T12:29:08.293Z,1025.55
2019-04-11T12:30:11.346Z,1025.55
2019-04-11T12:31:15.619Z,1025.54
2019-04-11T12:32:20.044Z,1025.54
2019-04-11T12:33:24.050Z,1025.52
2019-04-11T12:34:28.216Z,1025.54
2019-04-11T12:35:32.648Z,1025.53
2019-04-11T12:36:37.021Z,1025.52
2019-04-11T12:37:41.311Z,1025.49
2019-04-11T12:38:45.247Z,1025.51
2019-04-11T12:39:49.438Z,1025.52
2019-04-11T12:40:53.539Z,1025.52
2019-04-11T12:41:57.767Z,1025.54
2019-04-11T12:43:02.044Z,1025.53
2019-04-11T12:44:06.305Z,1025.54
2019-04-11T12:45:10.506Z,1025.53
2019-04-11T12:46:14.813Z,1025.53
2019-04-11T12:47:19.012Z,1025.55
2019-04-11T12:48:23.210Z,1025.55
2019-04-11T12:49:27.527Z,1025.56
2019-04-11T12:50:31.879Z,1025.56
2019-04-11T12:51:36.090Z,1025.55
2019-04-11T12:52:40.283Z,1025.53
2019-04-11T12:53:44.427Z,1025.54
2019-04-11T12:54:48.652Z,1025.53
2019-04-11T12:55:52.903Z,1025.53
2019-04-11T12:56:57.132Z,1025.53
2019-04-11T12:58:01.193Z,1025.52
2019-04-11T12:59:05.537Z,1025.52
2019-04-11T13:00:09.876Z,1025.53